Cebollita Spring, Valles Caldera, New Mexico Weather observations

Data are for 10 minute period ending at time listed.
 Day   Time   Solar   Ave.   Ave.  Ave.  Vector  Max.   Baro.   Total    
  of    of     Rad.   Air    Rel.  Wind   Wind   Wind  Press.  Precip.   
Year   Day            Temp.  Hum.  Speed  Dir.   Gust                    
2017   (MST)  Kw/m2    F      %     mph   deg.    mph    mb.     in.     
-------------------------------------------------------------------------
 147    4:30   0.00   47.6    21    7.5   258    14.3   99999.0    0.00 
 147    4:40   0.00   46.7    22    7.2   267    13.7   99999.0    0.00 
 147    4:50   0.00   46.8    22    8.1   272    16.7   99999.0    0.00 
 147    5:00   0.00   47.0    23    8.1   267    14.3   99999.0    0.00 
 147    5:10   0.01   46.6    23    6.8   273    13.1   99999.0    0.00 
 147    5:20   0.01   46.0    24    6.8   278    11.9   99999.0    0.00 
 147    5:30   0.01   46.5    25    7.1   278    11.9   99999.0    0.00 
 147    5:40   0.02   46.6    26    7.4   278    13.7   99999.0    0.00 
 147    5:50   0.09   46.9    27    6.3   280    11.9   99999.0    0.00 
 147    6:00   0.12   47.0    28    6.9   271    13.1   99999.0    0.00 
 147    6:10   0.14   47.8    27    6.1   281    10.8   99999.0    0.00 
 147    6:20   0.17   48.4    26    6.6   284    12.5   99999.0    0.00 
 147    6:30   0.20   48.6    26    5.6   285     9.6   99999.0    0.00 
 147    6:40   0.22   48.8    27    4.9   288    11.3   99999.0    0.00 
 147    6:50   0.25   50.2    26    7.5   280    14.9   99999.0    0.00 
 147    7:00   0.28   50.7    26    4.9   317    11.3   99999.0    0.00 
 147    7:10   0.31   51.0    26    4.7   300     8.4   99999.0    0.00 
 147    7:20   0.33   51.9    25    3.7   320     8.4   99999.0    0.00 
 147    7:30   0.36   52.9    24    3.6   316     7.2   99999.0    0.00 
 147    7:40   0.39   54.0    24    4.9   285    10.8   99999.0    0.00 
 147    7:50   0.42   55.2    23    5.3   289     9.6   99999.0    0.00 
 147    8:00   0.45   56.1    22    5.6   288    14.9   99999.0    0.00 
 147    8:10   0.47   56.5    22    5.3   284    11.7   99999.0    0.00 
 147    8:20   0.49   57.0    22    7.7   271    15.5   99999.0    0.00 
 147    8:30   0.52   57.7    22    6.7   281    13.7   99999.0    0.00 
 147    8:40   0.54   57.8    21    8.7   261    14.9   99999.0    0.00 
 147    8:50   0.56   58.6    21    7.4   260    14.3   99999.0    0.00 
 147    9:00   0.59   58.4    20    8.9   277    16.7   99999.0    0.00 
 147    9:10   0.61   59.4    20    7.3   270    15.5   99999.0    0.00 
 147    9:20   0.63   59.4    20    6.9   279    13.1   99999.0    0.00 
 147    9:30   0.65   59.7    20    8.8   288    16.7   99999.0    0.00 
 147    9:40   0.67   59.8    19    9.4   273    16.7   99999.0    0.00 
 147    9:50   0.69   59.9    20    7.1   299    13.1   99999.0    0.00 
 147   10:00   0.70   61.3    19    9.7   268    19.1   99999.0    0.00 
 147   10:10   0.73   61.5    18    9.0   282    16.7   99999.0    0.00 
 147   10:20   0.74   62.5    18    8.9   259    18.5   99999.0    0.00 
 147   10:30   0.76   62.2    18    8.6   248    16.1   99999.0    0.00 
 147   10:40   0.76   63.1    17    6.0   253    11.9   99999.0    0.00 
 147   10:50   0.77   64.8    17    5.3   276    10.8   99999.0    0.00 
 147   11:00   0.78   63.9    15    8.2   250    14.9   99999.0    0.00 
 147   11:10   0.79   64.6    14    8.1   276    17.3   99999.0    0.00 
 147   11:20   0.79   64.4    15    6.7   224    16.1   99999.0    0.00 
 147   11:30   0.80   64.9    14    9.9   260    20.9   99999.0    0.00 
 147   11:40   0.80   65.8    13    7.6   246    17.3   99999.0    0.00 
 147   11:50   0.80   65.5    14    7.8   242    14.3   99999.0    0.00 
 147   12:00   0.81   66.3    13    8.0   257    19.7   99999.0    0.00 
 147   12:10   0.81   65.4    13    9.4   264    15.5   99999.0    0.00 
 147   12:20   0.76   65.2    13    8.4   258    23.9   99999.0    0.00 
 147   12:30   0.80   66.1    13    7.9   247    17.9   99999.0    0.00 
 147   12:40   0.80   66.1    14    9.1   244    18.5   99999.0    0.00 
 147   12:50   0.79   66.6    12    9.2   244    18.5   99999.0    0.00 
 147   13:00   0.78   66.5    13    9.0   252    19.1   99999.0    0.00 
 147   13:10   0.79   67.6    13    7.4   278    16.7   99999.0    0.00 
 147   13:20   0.78   67.9    12    9.0   244    16.7   99999.0    0.00 
 147   13:30   0.76   68.1    12    8.1   269    16.7   99999.0    0.00 
 147   13:40   0.74   67.7    12    9.2   260    19.7   99999.0    0.00 
 147   13:50   0.73   67.9    12    9.8   252    19.1   99999.0    0.00 
 147   14:00   0.71   67.9    12    8.6   264    20.6   99999.0    0.00 
 147   14:10   0.70   66.9    12    8.0   269    17.9   99999.0    0.00 
 147   14:20   0.69   66.9    12   10.5   252    19.7   99999.0    0.00 
 147   14:30   0.62   66.7    13   10.3   294    19.7   99999.0    0.00 
 147   14:40   0.64   68.0    12   11.1   270    22.1   99999.0    0.00 
 147   14:50   0.63   67.2    12   10.0   281    19.1   99999.0    0.00 
 147   15:00   0.61   67.9    11    8.8   286    17.9   99999.0    0.00 
 147   15:10   0.59   67.3    11    9.1   245    19.7   99999.0    0.00 
 147   15:20   0.57   67.1    12    8.9   279    22.1   99999.0    0.00 
 147   15:30   0.55   67.4    12   11.3   293    24.5   99999.0    0.00 
 147   15:40   0.52   66.5    12    9.5   263    17.9   99999.0    0.00 
 147   15:50   0.50   67.4    12    9.9   270    19.1   99999.0    0.00 
 147   16:00   0.47   68.3    12    8.2   280    17.9   99999.0    0.00 
 147   16:10   0.41   68.0    12    6.8   277    15.5   99999.0    0.00 
 147   16:20   0.40   66.5    13   10.7   262    20.9   99999.0    0.00 
 147   16:30   0.41   66.1    13   10.9   292    20.3   99999.0    0.00 
 147   16:40   0.38   66.3    13    7.4   263    17.3   99999.0    0.00 
 147   16:50   0.35   67.0    13    8.6   264    17.3   99999.0    0.00 
 147   17:00   0.29   65.9    13    7.9   283    14.9   99999.0    0.00 
 147   17:10   0.28   65.8    14    9.0   280    19.7   99999.0    0.00 
 147   17:20   0.26   65.3    14    8.5   291    16.7   99999.0    0.00 
 147   17:30   0.23   65.1    14    7.0   276    14.9   99999.0    0.00 
 147   17:40   0.20   64.3    15    7.9   299    15.5   99999.0    0.00 
 147   17:50   0.18   63.5    16    7.6   293    16.7   99999.0    0.00 
 147   18:00   0.15   62.4    17    6.5   288    13.1   99999.0    0.00 
 147   18:10   0.12   61.6    18    6.0   299    11.9   99999.0    0.00 
 147   18:20   0.09   61.0    19    4.6   301     7.8   99999.0    0.00 
 147   18:30   0.03   60.5    20    6.9   288    14.9   99999.0    0.00 
 147   18:40   0.02   60.0    20    6.1   310    13.7   99999.0    0.00 
 147   18:50   0.02   59.0    21    4.4   297     7.8   99999.0    0.00 
 147   19:00   0.01   57.8    23    3.8   310     7.8   99999.0    0.00 
 147   19:10   0.01   56.3    25    4.5   314    10.8   99999.0    0.00 
 147   19:20   0.00   56.1    24    5.3   317    11.3   99999.0    0.00 
 147   19:30   0.00   55.3    25    2.9   318     6.6   99999.0    0.00 
 147   19:40   0.00   52.8    28    2.6   328     5.4   99999.0    0.00 
 147   19:50   0.00   51.1    30    1.8   342     4.2   99999.0    0.00 
 147   20:00   0.00   49.9    31    2.5   348     4.8   99999.0    0.00 
 147   20:10   0.00   49.5    31    2.9   345     6.0   99999.0    0.00 
 147   20:20   0.00   49.5    30    3.3   346     6.6   99999.0    0.00 
 147   20:30   0.00   49.6    30    2.9   344     6.0   99999.0    0.00 
 147   20:40   0.00   48.8    32    2.4   345     4.8   99999.0    0.00 
 147   20:50   0.00   47.4    33    2.3   346     4.5   99999.0    0.00 
 147   21:00   0.00   46.4    35    2.7   338     4.8   99999.0    0.00 
 147   21:10   0.00   46.1    35    3.2   340     5.4   99999.0    0.00 
 147   21:20   0.00   45.7    37    2.7   340     4.8   99999.0    0.00 
 147   21:30   0.00   45.8    36    2.8   344     5.4   99999.0    0.00 
 147   21:40   0.00   45.7    37    3.0   344     5.4   99999.0    0.00 
 147   21:50   0.00   44.6    39    3.3   343     7.2   99999.0    0.00 
 147   22:00   0.00   44.4    38    2.8   334     6.0   99999.0    0.00 
 147   22:10   0.00   44.3    38    2.6   339     4.8   99999.0    0.00 
 147   22:20   0.00   44.3    38    3.3   342     6.0   99999.0    0.00 
 147   22:30   0.00   44.9    36    2.2   347     4.8   99999.0    0.00 
 147   22:40   0.00   43.7    39    1.4     3     4.2   99999.0    0.00 
 147   22:50   0.00   42.6    41    0.8    12     3.0   99999.0    0.00 
 147   23:00   0.00   41.8    42    0.4    14     1.8   99999.0    0.00 
 147   23:10   0.00   40.9    44    1.2   340     3.0   99999.0    0.00 
 147   23:20   0.00   40.0    45    0.3   342     1.8   99999.0    0.00 
 147   23:30   0.00   38.9    48    0.2   338     1.8   99999.0    0.00 
 147   23:40   0.00   37.7    51    0.1    34     1.2   99999.0    0.00 
 147   23:50   0.00   36.7    52    0.2    12     1.2   99999.0    0.00 
 148    0:00   0.00   36.0    54    0.3    32     1.8   99999.0    0.00 
 148    0:10   0.00   35.4    54    0.4    22     2.4   99999.0    0.00 
 148    0:20   0.00   34.6    55    0.7    47     1.8   99999.0    0.00 
 148    0:30   0.00   34.0    56    1.1    46     1.8   99999.0    0.00 
 148    0:40   0.00   33.7    56    0.1    36     1.2   99999.0    0.00 
 148    0:50   0.00   33.2    57    0.0     0     0.0   99999.0    0.00 
 148    1:00   0.00   32.7    56    0.0     0     0.0   99999.0    0.00 
 148    1:10   0.00   32.3    57    0.0     0     0.0   99999.0    0.00 
 148    1:20   0.00   32.0    58    0.7    10     2.4   99999.0    0.00 
 148    1:30   0.00   32.0    57    0.8   359     2.4   99999.0    0.00 
 148    1:40   0.00   31.9    57    0.5   356     3.0   99999.0    0.00 
 148    1:50   0.00   31.6    57    0.7    16     1.8   99999.0    0.00 
 148    2:00   0.00   31.2    58    1.0    41     1.8   99999.0    0.00 
 148    2:10   0.00   30.8    58    1.3    45     3.0   99999.0    0.00 
 148    2:20   0.00   30.5    57    1.6    56     3.6   99999.0    0.00 
 148    2:30   0.00   30.3    57    1.0    67     2.4   99999.0    0.00 
 148    2:40   0.00   30.0    58    1.4    47     3.0   99999.0    0.00 
 148    2:50   0.00   29.7    57    1.4    74     3.0   99999.0    0.00 
 148    3:00   0.00   29.4    58    0.3    59     1.8   99999.0    0.00 
 148    3:10   0.00   29.0    59    1.1    59     3.0   99999.0    0.00 
 148    3:20   0.00   28.8    59    1.1    47     3.0   99999.0    0.00 
 148    3:30   0.00   28.9    59    1.9    58     3.0   99999.0    0.00 
 148    3:40   0.00   28.8    59    2.1    61     3.0   99999.0    0.00 
 148    3:50   0.00   28.5    59    2.1    64     3.0   99999.0    0.00 
 148    4:00   0.00   28.3    60    2.0    66     3.0   99999.0    0.00 
 148    4:10   0.00   28.3    60    1.7    63     3.3   99999.0    0.00 
 148    4:20   0.00   28.0    60    2.1    63     3.0   99999.0    0.00 

Return to Cebollita Spring, Valles Caldera graphs page.


Western Regional Climate Center,wrcc@dri.edu